createdAt,value
2018-07-08T00:01:07.872Z,9.33
2018-07-08T00:03:35.913Z,7.45
2018-07-08T00:06:03.740Z,7.08
2018-07-08T00:08:31.781Z,8.60
2018-07-08T00:11:00.187Z,11.63
2018-07-08T00:13:28.241Z,9.38
2018-07-08T00:15:56.255Z,6.13
2018-07-08T00:18:24.731Z,8.15
2018-07-08T00:20:53.901Z,5.77
2018-07-08T00:23:22.685Z,9.70
2018-07-08T00:25:50.745Z,6.75
2018-07-08T00:28:18.833Z,10.90
2018-07-08T00:30:46.972Z,8.45
2018-07-08T00:33:15.032Z,9.10
2018-07-08T00:35:43.052Z,10.85
2018-07-08T00:38:11.084Z,8.50
2018-07-08T00:40:39.109Z,10.30
2018-07-08T00:43:07.128Z,9.70
2018-07-08T00:45:35.169Z,10.57
2018-07-08T00:48:03.237Z,9.35
2018-07-08T00:50:31.068Z,10.25
2018-07-08T00:52:59.092Z,9.63
2018-07-08T00:55:27.140Z,9.15
2018-07-08T00:57:55.185Z,8.65
2018-07-08T01:00:32.248Z,9.05
2018-07-08T01:03:01.233Z,12.37
2018-07-08T01:05:29.628Z,9.95
2018-07-08T01:07:57.700Z,11.30
2018-07-08T01:10:25.770Z,7.47
2018-07-08T01:12:53.812Z,12.55
2018-07-08T01:15:21.861Z,9.63
2018-07-08T01:17:49.884Z,10.58
2018-07-08T01:20:17.928Z,10.65
2018-07-08T01:22:45.972Z,8.93
2018-07-08T01:25:15.731Z,9.98
2018-07-08T01:27:43.744Z,7.15
2018-07-08T01:30:13.228Z,11.97
2018-07-08T01:32:41.240Z,8.23
2018-07-08T01:35:09.292Z,11.28
2018-07-08T01:37:37.335Z,7.90
2018-07-08T01:40:05.616Z,11.70
2018-07-08T01:42:33.656Z,7.15
2018-07-08T01:45:01.786Z,8.35
2018-07-08T01:47:29.821Z,10.35
2018-07-08T01:49:57.655Z,10.58
2018-07-08T01:52:26.242Z,7.22
2018-07-08T01:54:55.140Z,10.20
2018-07-08T01:57:24.021Z,10.40
2018-07-08T01:59:52.808Z,9.43
2018-07-08T02:02:21.489Z,9.77
2018-07-08T02:04:50.044Z,7.97
2018-07-08T02:07:18.185Z,9.68
2018-07-08T02:09:46.455Z,9.78
2018-07-08T02:12:14.499Z,11.60
2018-07-08T02:14:42.565Z,13.65
2018-07-08T02:17:11.099Z,12.05
2018-07-08T02:19:39.121Z,8.20
2018-07-08T02:22:07.176Z,11.35
2018-07-08T02:24:35.216Z,10.17
2018-07-08T02:27:04.040Z,11.70
2018-07-08T02:29:32.381Z,8.83
2018-07-08T02:32:00.425Z,10.43
2018-07-08T02:34:28.247Z,9.90
2018-07-08T02:36:56.291Z,10.18
2018-07-08T02:39:24.484Z,10.65
2018-07-08T02:41:52.547Z,12.88
2018-07-08T02:44:20.564Z,8.93
2018-07-08T02:46:48.404Z,8.38
2018-07-08T02:49:16.912Z,12.82
2018-07-08T02:51:44.763Z,10.15
2018-07-08T02:54:12.796Z,9.28
2018-07-08T02:56:40.845Z,10.60
2018-07-08T02:59:08.856Z,8.85
2018-07-08T03:01:36.910Z,12.58
2018-07-08T03:04:04.944Z,8.67
2018-07-08T03:06:32.748Z,9.00
2018-07-08T03:09:00.785Z,11.50
2018-07-08T03:11:28.820Z,10.23
2018-07-08T03:13:56.853Z,11.73
2018-07-08T03:16:24.872Z,6.67
2018-07-08T03:18:52.704Z,11.45
2018-07-08T03:21:20.758Z,9.60
2018-07-08T03:23:48.764Z,9.23
2018-07-08T03:26:16.804Z,9.68
2018-07-08T03:28:44.840Z,8.45
2018-07-08T03:31:12.875Z,11.28
2018-07-08T03:33:40.897Z,11.83
2018-07-08T03:36:08.959Z,12.58
2018-07-08T03:38:37.002Z,11.00
2018-07-08T03:41:04.832Z,9.10
2018-07-08T03:43:32.861Z,10.75
2018-07-08T03:46:00.900Z,10.98
2018-07-08T03:48:28.728Z,9.43
2018-07-08T03:50:56.757Z,8.85
2018-07-08T03:53:24.768Z,9.03
2018-07-08T03:55:52.829Z,9.63
2018-07-08T03:58:20.844Z,9.10
2018-07-08T04:00:48.812Z,13.05
2018-07-08T04:03:16.886Z,8.70
2018-07-08T04:05:44.712Z,11.50
2018-07-08T04:08:12.744Z,12.40
2018-07-08T04:10:40.756Z,9.50
2018-07-08T04:13:08.796Z,8.78
2018-07-08T04:15:36.853Z,12.80
2018-07-08T04:18:08.755Z,8.80
2018-07-08T04:20:37.885Z,10.78
2018-07-08T04:23:05.964Z,8.03
2018-07-08T04:25:34.291Z,7.90
2018-07-08T04:28:02.572Z,9.38
2018-07-08T04:30:31.280Z,8.50
2018-07-08T04:32:59.364Z,11.25
2018-07-08T04:35:27.420Z,9.50
2018-07-08T04:37:55.664Z,9.40
2018-07-08T04:40:23.696Z,6.60
2018-07-08T04:42:51.765Z,8.63
2018-07-08T04:45:19.801Z,6.43
2018-07-08T04:47:47.828Z,10.18
2018-07-08T04:50:15.876Z,7.97
2018-07-08T04:52:43.936Z,10.60
2018-07-08T04:55:11.777Z,9.88
2018-07-08T04:57:39.808Z,9.83
2018-07-08T05:00:07.864Z,5.80
2018-07-08T05:02:35.892Z,8.93
2018-07-08T05:05:03.926Z,7.47
2018-07-08T05:07:31.977Z,10.50
2018-07-08T05:10:00.024Z,9.23
2018-07-08T05:12:27.848Z,7.87
2018-07-08T05:14:56.115Z,7.72
2018-07-08T05:17:24.192Z,11.22
2018-07-08T05:19:52.200Z,8.30
2018-07-08T05:22:20.070Z,6.58
2018-07-08T05:24:48.092Z,9.28
2018-07-08T05:27:16.160Z,9.08
2018-07-08T05:29:44.197Z,8.15
2018-07-08T05:32:12.031Z,9.03
2018-07-08T05:34:39.863Z,6.65
2018-07-08T05:37:08.748Z,5.97
2018-07-08T05:39:36.772Z,8.30
2018-07-08T05:42:05.130Z,9.58
2018-07-08T05:44:33.160Z,7.87
2018-07-08T05:47:01.340Z,7.65
2018-07-08T05:49:29.489Z,8.80
2018-07-08T05:51:57.536Z,8.28
2018-07-08T05:54:25.632Z,6.65
2018-07-08T05:56:53.933Z,7.07
2018-07-08T05:59:21.981Z,8.53
2018-07-08T06:01:50.012Z,6.12
2018-07-08T06:04:17.847Z,9.30
2018-07-08T06:06:45.885Z,9.50
2018-07-08T06:09:13.940Z,8.10
2018-07-08T06:11:41.980Z,7.22
2018-07-08T06:14:09.824Z,7.00
2018-07-08T06:16:37.831Z,9.10
2018-07-08T06:19:05.723Z,7.72
2018-07-08T06:21:33.740Z,8.35
2018-07-08T06:24:01.778Z,8.83
2018-07-08T06:26:29.821Z,9.10
2018-07-08T06:28:57.840Z,6.33
2018-07-08T06:31:25.866Z,10.08
2018-07-08T06:33:53.900Z,7.80
2018-07-08T06:36:21.920Z,8.98
2018-07-08T06:38:49.937Z,9.58
2018-07-08T06:41:17.955Z,7.55
2018-07-08T06:43:45.976Z,9.08
2018-07-08T06:46:13.799Z,8.05
2018-07-08T06:48:41.852Z,8.18
2018-07-08T06:51:09.879Z,7.78
2018-07-08T06:53:37.716Z,7.00
2018-07-08T06:56:05.841Z,6.92
2018-07-08T06:58:33.865Z,8.50
2018-07-08T07:01:01.926Z,10.25
2018-07-08T07:03:29.949Z,6.78
2018-07-08T07:05:57.964Z,7.87
2018-07-08T07:08:26.004Z,6.28
2018-07-08T07:10:54.672Z,9.05
2018-07-08T07:13:22.678Z,8.30
2018-07-08T07:15:50.700Z,7.80
2018-07-08T07:18:18.528Z,6.62
2018-07-08T07:20:46.586Z,7.50
2018-07-08T07:23:14.621Z,9.73
2018-07-08T07:25:42.627Z,6.80
2018-07-08T07:28:10.664Z,9.25
2018-07-08T07:30:38.676Z,6.62
2018-07-08T07:33:06.736Z,6.92
2018-07-08T07:35:34.759Z,5.00
2018-07-08T07:38:02.776Z,7.30
2018-07-08T07:40:30.796Z,7.33
2018-07-08T07:42:58.832Z,5.87
2018-07-08T07:45:26.895Z,8.38
2018-07-08T07:47:54.905Z,8.15
2018-07-08T07:50:22.932Z,5.83
2018-07-08T07:52:50.944Z,6.30
2018-07-08T07:55:19.147Z,5.35
2018-07-08T07:57:47.165Z,5.87
2018-07-08T08:00:15.215Z,7.83
2018-07-08T08:02:43.224Z,7.30
2018-07-08T08:05:11.048Z,6.15
2018-07-08T08:07:39.120Z,6.03
2018-07-08T08:10:07.508Z,7.87
2018-07-08T08:12:35.549Z,4.80
2018-07-08T08:15:04.384Z,7.62
2018-07-08T08:17:32.480Z,5.17
2018-07-08T08:20:00.500Z,6.90
2018-07-08T08:22:28.557Z,5.25
2018-07-08T08:24:56.632Z,5.92
2018-07-08T08:27:24.641Z,6.42
2018-07-08T08:29:52.511Z,5.70
2018-07-08T08:32:20.532Z,4.23
2018-07-08T08:34:55.039Z,5.50
2018-07-08T08:37:24.156Z,4.85
2018-07-08T08:39:52.852Z,4.77
2018-07-08T08:42:21.008Z,7.58
2018-07-08T08:44:49.704Z,6.07
2018-07-08T08:47:18.397Z,7.20
2018-07-08T08:49:47.480Z,5.30
2018-07-08T08:52:15.517Z,6.30
2018-07-08T08:54:43.542Z,6.77
2018-07-08T08:57:12.000Z,5.72
2018-07-08T08:59:40.045Z,6.40
2018-07-08T09:02:08.456Z,5.40
2018-07-08T09:04:37.221Z,4.53
2018-07-08T09:07:05.552Z,4.40
2018-07-08T09:09:33.499Z,5.20
2018-07-08T09:12:01.521Z,6.80
2018-07-08T09:14:29.548Z,4.57
2018-07-08T09:16:57.588Z,5.97
2018-07-08T09:19:25.596Z,6.03
2018-07-08T09:21:54.381Z,4.20
2018-07-08T09:24:22.416Z,5.85
2018-07-08T09:26:50.614Z,7.55
2018-07-08T09:29:18.669Z,7.78
2018-07-08T09:31:46.656Z,8.20
2018-07-08T09:34:14.673Z,4.40
2018-07-08T09:36:42.696Z,5.57
2018-07-08T09:39:13.686Z,5.95
2018-07-08T09:41:42.492Z,5.05
2018-07-08T09:44:11.584Z,5.83
2018-07-08T09:46:40.172Z,6.95
2018-07-08T09:49:08.177Z,5.40
2018-07-08T09:51:36.011Z,7.30
2018-07-08T09:54:04.168Z,4.60
2018-07-08T09:56:32.234Z,8.40
2018-07-08T09:59:00.429Z,7.92
2018-07-08T10:01:28.537Z,4.20
2018-07-08T10:03:56.560Z,6.15
2018-07-08T10:06:24.584Z,6.20
2018-07-08T10:08:52.608Z,7.00
2018-07-08T10:11:20.651Z,7.17
2018-07-08T10:13:48.735Z,6.67
2018-07-08T10:16:16.704Z,6.90
2018-07-08T10:18:44.754Z,4.30
2018-07-08T10:21:12.783Z,4.80
2018-07-08T10:23:40.867Z,5.42
2018-07-08T10:26:08.896Z,5.12
2018-07-08T10:28:36.928Z,5.47
2018-07-08T10:31:09.990Z,5.50
2018-07-08T10:33:56.369Z,5.35
2018-07-08T10:36:24.417Z,8.08
2018-07-08T10:38:52.469Z,8.23
2018-07-08T10:41:20.504Z,5.30
2018-07-08T10:43:48.553Z,5.87
2018-07-08T10:46:16.576Z,8.27
2018-07-08T10:48:44.605Z,5.53
2018-07-08T10:51:12.637Z,5.42
2018-07-08T10:53:40.672Z,5.33
2018-07-08T10:56:08.696Z,5.53
2018-07-08T10:58:36.720Z,4.12
2018-07-08T11:01:04.757Z,6.00
2018-07-08T11:03:32.823Z,5.75
2018-07-08T11:06:00.892Z,5.03
2018-07-08T11:08:28.983Z,5.35
2018-07-08T11:10:57.001Z,6.47
2018-07-08T11:13:25.037Z,6.33
2018-07-08T11:15:53.328Z,5.47
2018-07-08T11:18:21.397Z,6.40
2018-07-08T11:20:49.488Z,7.58
2018-07-08T11:23:17.480Z,6.03
2018-07-08T11:25:45.544Z,7.30
2018-07-08T11:28:13.568Z,5.35
2018-07-08T11:30:41.676Z,5.20
2018-07-08T11:33:10.088Z,5.60
2018-07-08T11:35:37.923Z,5.55
2018-07-08T11:38:06.098Z,5.37
2018-07-08T11:40:34.092Z,5.78
2018-07-08T11:43:02.007Z,6.22
2018-07-08T11:45:29.973Z,5.90
2018-07-08T11:47:58.008Z,6.72
2018-07-08T11:50:26.063Z,5.22
2018-07-08T11:52:54.151Z,5.42
2018-07-08T11:55:22.217Z,5.83
2018-07-08T11:57:50.188Z,5.60
2018-07-08T12:00:18.209Z,4.83
2018-07-08T12:02:46.244Z,4.62
2018-07-08T12:05:14.260Z,5.33
2018-07-08T12:07:42.280Z,5.60
2018-07-08T12:10:10.293Z,6.90
2018-07-08T12:12:38.352Z,6.08
2018-07-08T12:15:06.356Z,5.40
2018-07-08T12:17:34.188Z,5.85
2018-07-08T12:20:02.206Z,5.87
2018-07-08T12:22:30.220Z,6.60
2018-07-08T12:24:58.488Z,6.67
2018-07-08T12:27:26.550Z,4.00
2018-07-08T12:29:54.844Z,4.50
2018-07-08T12:32:22.860Z,7.62
2018-07-08T12:34:50.880Z,4.97
2018-07-08T12:37:18.900Z,4.92
2018-07-08T12:39:46.907Z,5.28
2018-07-08T12:42:14.925Z,3.77
2018-07-08T12:44:43.055Z,6.37
2018-07-08T12:47:10.957Z,7.17
2018-07-08T12:49:38.967Z,6.60
2018-07-08T12:52:06.993Z,6.10
2018-07-08T12:54:35.015Z,6.22
2018-07-08T12:57:03.045Z,4.30
2018-07-08T12:59:30.880Z,6.50
2018-07-08T13:01:58.896Z,5.92
2018-07-08T13:04:26.923Z,6.45
2018-07-08T13:06:54.964Z,5.80
2018-07-08T13:09:23.006Z,5.62
2018-07-08T13:11:51.070Z,3.52
2018-07-08T13:14:19.265Z,4.10
2018-07-08T13:16:47.268Z,6.03
2018-07-08T13:19:15.316Z,6.03
2018-07-08T13:21:43.364Z,5.20
2018-07-08T13:24:11.418Z,4.85
2018-07-08T13:26:39.429Z,6.50
2018-07-08T13:29:07.460Z,5.90
2018-07-08T13:31:35.287Z,4.83
2018-07-08T13:34:03.309Z,5.37
2018-07-08T13:36:31.335Z,6.30
2018-07-08T13:38:59.390Z,5.17
2018-07-08T13:41:27.388Z,3.40
2018-07-08T13:43:55.471Z,4.57
2018-07-08T13:46:23.300Z,6.83
2018-07-08T13:48:51.353Z,5.70
2018-07-08T13:51:19.383Z,5.00
2018-07-08T13:53:47.203Z,4.78
2018-07-08T13:56:15.220Z,5.22
2018-07-08T13:58:43.289Z,5.10
2018-07-08T14:01:11.121Z,5.73
2018-07-08T14:03:39.215Z,5.47
2018-07-08T14:06:07.055Z,5.55
2018-07-08T14:08:35.081Z,4.45
2018-07-08T14:11:03.103Z,4.60
2018-07-08T14:13:31.120Z,5.75
2018-07-08T14:15:59.161Z,5.55
2018-07-08T14:18:27.205Z,5.65
2018-07-08T14:20:55.224Z,4.75
2018-07-08T14:23:23.266Z,5.77
2018-07-08T14:25:51.285Z,6.70
2018-07-08T14:28:19.316Z,6.00
2018-07-08T14:30:47.225Z,5.53
2018-07-08T14:33:15.260Z,5.00
2018-07-08T14:35:43.280Z,4.00
2018-07-08T14:38:11.309Z,4.63
2018-07-08T14:40:39.342Z,5.70
2018-07-08T14:43:07.383Z,5.17
2018-07-08T14:45:35.412Z,4.85
2018-07-08T14:48:03.420Z,4.60
2018-07-08T14:50:31.445Z,5.50
2018-07-08T14:52:59.456Z,6.25
2018-07-08T14:55:27.480Z,4.75
2018-07-08T14:57:55.496Z,4.97
2018-07-08T15:00:23.515Z,4.75
2018-07-08T15:02:51.521Z,5.03
2018-07-08T15:05:19.532Z,4.25
2018-07-08T15:07:47.592Z,4.90
2018-07-08T15:10:15.634Z,4.12
2018-07-08T15:12:43.669Z,4.42
2018-07-08T15:15:11.487Z,4.62
2018-07-08T15:17:39.499Z,4.05
2018-07-08T15:20:07.323Z,3.30
2018-07-08T15:22:35.349Z,4.00
2018-07-08T15:25:03.526Z,3.80
2018-07-08T15:27:31.548Z,5.43
2018-07-08T15:29:59.577Z,5.17
2018-07-08T15:32:27.596Z,4.08
2018-07-08T15:34:55.724Z,3.55
2018-07-08T15:37:23.730Z,4.30
2018-07-08T15:39:51.770Z,5.37
2018-07-08T15:42:19.835Z,3.02
2018-07-08T15:44:47.881Z,4.40
2018-07-08T15:47:16.014Z,4.58
2018-07-08T15:49:43.961Z,4.92
2018-07-08T15:52:11.972Z,4.03
2018-07-08T15:54:40.026Z,4.78
2018-07-08T15:57:08.041Z,3.92
2018-07-08T15:59:36.079Z,4.62
2018-07-08T16:02:04.084Z,4.10
2018-07-08T16:04:32.116Z,4.17
2018-07-08T16:07:00.439Z,5.72
2018-07-08T16:09:28.469Z,4.78
2018-07-08T16:11:56.564Z,3.80
2018-07-08T16:14:24.571Z,4.72
2018-07-08T16:16:52.601Z,4.67
2018-07-08T16:19:20.670Z,4.60
2018-07-08T16:21:48.773Z,4.85
2018-07-08T16:24:16.774Z,3.87
2018-07-08T16:26:44.941Z,4.78
2018-07-08T16:29:12.952Z,5.40
2018-07-08T16:31:41.017Z,4.70
2018-07-08T16:34:09.035Z,4.47
2018-07-08T16:36:37.072Z,2.92
2018-07-08T16:39:05.176Z,4.10
2018-07-08T16:41:33.216Z,3.05
2018-07-08T16:44:01.553Z,3.50
2018-07-08T16:46:29.580Z,4.37
2018-07-08T16:48:57.617Z,3.12
2018-07-08T16:51:25.663Z,3.00
2018-07-08T16:53:53.699Z,4.85
2018-07-08T16:56:21.798Z,3.17
2018-07-08T16:58:49.824Z,5.30
2018-07-08T17:01:17.861Z,4.85
2018-07-08T17:03:46.364Z,3.95
2018-07-08T17:06:14.456Z,3.97
2018-07-08T17:08:42.484Z,4.22
2018-07-08T17:11:10.320Z,4.90
2018-07-08T17:13:38.357Z,3.90
2018-07-08T17:16:06.554Z,3.50
2018-07-08T17:18:34.580Z,4.90
2018-07-08T17:21:02.593Z,4.10
2018-07-08T17:23:30.673Z,3.52
2018-07-08T17:25:59.241Z,4.85
2018-07-08T17:28:27.401Z,3.98
2018-07-08T17:30:55.851Z,6.05
2018-07-08T17:33:25.658Z,5.33
2018-07-08T17:35:54.589Z,4.35
2018-07-08T17:38:22.677Z,3.20
2018-07-08T17:40:51.739Z,3.95
2018-07-08T17:43:19.745Z,4.87
2018-07-08T17:45:48.005Z,4.15
2018-07-08T17:48:16.053Z,3.47
2018-07-08T17:50:44.090Z,3.35
2018-07-08T17:53:12.503Z,5.50
2018-07-08T17:55:41.646Z,4.55
2018-07-08T17:58:09.679Z,4.20
2018-07-08T18:00:37.944Z,3.45
2018-07-08T18:03:06.201Z,3.67
2018-07-08T18:05:35.024Z,6.25
2018-07-08T18:08:03.089Z,3.80
2018-07-08T18:10:31.141Z,3.60
2018-07-08T18:12:59.184Z,3.77
2018-07-08T18:15:27.299Z,3.83
2018-07-08T18:17:55.276Z,4.60
2018-07-08T18:20:23.316Z,4.37
2018-07-08T18:22:51.340Z,3.03
2018-07-08T18:25:19.379Z,3.40
2018-07-08T18:27:47.461Z,2.87
2018-07-08T18:30:15.463Z,4.65
2018-07-08T18:32:43.496Z,3.98
2018-07-08T18:35:11.548Z,3.30
2018-07-08T18:37:39.657Z,4.00
2018-07-08T18:40:07.742Z,4.10
2018-07-08T18:42:35.948Z,3.00
2018-07-08T18:45:04.172Z,3.77
2018-07-08T18:47:32.212Z,4.20
2018-07-08T18:50:00.272Z,5.28
2018-07-08T18:52:28.388Z,4.00
2018-07-08T18:54:56.441Z,3.30
2018-07-08T18:57:24.500Z,4.90
2018-07-08T18:59:53.393Z,4.33
2018-07-08T19:02:21.589Z,3.70
2018-07-08T19:04:49.630Z,3.92
2018-07-08T19:07:17.705Z,5.70
2018-07-08T19:09:45.822Z,4.30
2018-07-08T19:12:13.675Z,3.83
2018-07-08T19:14:41.705Z,5.20
2018-07-08T19:17:09.833Z,4.08
2018-07-08T19:19:37.687Z,3.80
2018-07-08T19:22:05.765Z,5.10
2018-07-08T19:24:33.984Z,4.83
2018-07-08T19:27:01.954Z,4.70
2018-07-08T19:29:29.993Z,4.08
2018-07-08T19:31:58.034Z,3.70
2018-07-08T19:34:26.129Z,4.25
2018-07-08T19:36:54.237Z,3.85
2018-07-08T19:39:22.276Z,4.43
2018-07-08T19:41:50.300Z,5.33
2018-07-08T19:44:21.244Z,5.25
2018-07-08T19:46:49.340Z,5.65
2018-07-08T19:49:17.186Z,4.72
2018-07-08T19:51:45.301Z,6.67
2018-07-08T19:54:13.592Z,7.40
2018-07-08T19:56:41.633Z,5.22
2018-07-08T19:59:09.813Z,4.87
2018-07-08T20:01:37.720Z,4.90
2018-07-08T20:04:05.774Z,5.30
2018-07-08T20:06:33.813Z,4.72
2018-07-08T20:09:01.864Z,6.00
2018-07-08T20:11:29.892Z,5.65
2018-07-08T20:13:57.929Z,7.62
2018-07-08T20:16:26.012Z,5.60
2018-07-08T20:18:53.993Z,5.17
2018-07-08T20:21:22.200Z,5.83
2018-07-08T20:23:50.400Z,6.03
2018-07-08T20:26:18.279Z,5.80
2018-07-08T20:28:46.361Z,5.92
2018-07-08T20:31:14.425Z,5.90
2018-07-08T20:33:42.549Z,6.05
2018-07-08T20:36:10.593Z,5.90
2018-07-08T20:38:38.658Z,7.60
2018-07-08T20:41:06.968Z,5.92
2018-07-08T20:43:35.232Z,6.00
2018-07-08T20:46:03.276Z,7.42
2018-07-08T20:48:31.320Z,7.28
2018-07-08T20:50:59.175Z,6.57
2018-07-08T20:53:27.232Z,6.00
2018-07-08T20:55:55.243Z,7.67
2018-07-08T20:58:23.380Z,8.70
2018-07-08T21:00:51.478Z,7.17
2018-07-08T21:03:19.556Z,6.80
2018-07-08T21:05:47.576Z,6.40
2018-07-08T21:08:15.612Z,6.37
2018-07-08T21:10:43.674Z,7.72
2018-07-08T21:13:11.689Z,6.27
2018-07-08T21:15:39.717Z,6.55
2018-07-08T21:18:07.748Z,6.92
2018-07-08T21:20:35.770Z,6.45
2018-07-08T21:23:03.788Z,6.92
2018-07-08T21:25:31.856Z,6.45
2018-07-08T21:28:00.500Z,6.50
2018-07-08T21:30:28.693Z,6.33
2018-07-08T21:32:56.730Z,6.80
2018-07-08T21:35:24.841Z,6.53
2018-07-08T21:37:52.856Z,6.30
2018-07-08T21:40:20.898Z,6.10
2018-07-08T21:42:48.965Z,8.20
2018-07-08T21:45:17.026Z,6.70
2018-07-08T21:47:45.036Z,6.75
2018-07-08T21:50:13.081Z,7.42
2018-07-08T21:52:41.137Z,6.80
2018-07-08T21:55:09.159Z,6.10
2018-07-08T21:57:37.178Z,7.00
2018-07-08T22:00:06.009Z,6.40
2018-07-08T22:02:34.305Z,7.37
2018-07-08T22:05:02.365Z,6.60
2018-07-08T22:07:35.961Z,6.80
2018-07-08T22:10:04.381Z,8.07
2018-07-08T22:12:32.409Z,7.00
2018-07-08T22:15:00.661Z,7.28
2018-07-08T22:17:28.736Z,7.58
2018-07-08T22:19:56.804Z,6.83
2018-07-08T22:22:24.825Z,6.90
2018-07-08T22:24:52.948Z,6.72
2018-07-08T22:27:21.762Z,7.53
2018-07-08T22:29:49.796Z,10.25
2018-07-08T22:32:17.617Z,7.60
2018-07-08T22:34:45.653Z,7.30
2018-07-08T22:37:13.664Z,7.22
2018-07-08T22:39:41.713Z,7.30
2018-07-08T22:42:09.751Z,6.87
2018-07-08T22:44:37.800Z,7.30
2018-07-08T22:47:05.824Z,7.83
2018-07-08T22:49:33.863Z,7.42
2018-07-08T22:52:01.896Z,7.90
2018-07-08T22:54:29.937Z,8.28
2018-07-08T22:56:57.989Z,8.43
2018-07-08T22:59:26.011Z,7.75
2018-07-08T23:02:05.485Z,7.22
2018-07-08T23:04:33.516Z,7.67
2018-07-08T23:07:01.556Z,8.03
2018-07-08T23:09:29.601Z,8.18
2018-07-08T23:11:57.648Z,8.23
2018-07-08T23:14:25.683Z,7.70
2018-07-08T23:16:53.704Z,10.28
2018-07-08T23:19:21.752Z,7.80
2018-07-08T23:21:49.787Z,8.43
2018-07-08T23:24:17.808Z,7.90
2018-07-08T23:26:45.859Z,8.00
2018-07-08T23:29:13.696Z,9.88
2018-07-08T23:31:41.762Z,8.30
2018-07-08T23:34:09.758Z,8.38
2018-07-08T23:36:37.611Z,8.20
2018-07-08T23:39:05.984Z,8.60
2018-07-08T23:41:34.044Z,8.18
2018-07-08T23:44:02.077Z,8.68
2018-07-08T23:46:30.152Z,8.60
2018-07-08T23:48:58.177Z,8.80
2018-07-08T23:51:26.226Z,8.98
2018-07-08T23:53:54.260Z,9.05
2018-07-08T23:56:22.304Z,8.40
2018-07-08T23:58:50.467Z,8.45
